LIBD Airport Information

Runway Information
Runway 07 Length 8005 ft width 148 ft
Elevation 177 ft Threshold 0 ft Heading 69
Runway 25 Length 8005 ft Width 148 ft
Elevation 108 ft Threshold 0 ft Heading 249
Runway 12 Length 5512 ft width 164 ft
Elevation 108 ft Threshold 0 ft Heading 123
Runway 30 Length 5512 ft Width 164 ft
Elevation 108 ft Threshold 0 ft Heading 303
Airport Frequencies
Type APP Name APP Frequency 119.5 MHZ
Type TWR Name TWR Frequency 118.3 MHZ
Airport Navaids
Type VOR-DME Name Bari Frequency 116400 KHZ
Airport Weather Information & NOTAM
ADDS - METARS form results

(0208 UTC 07 June 2020)
Data provider http://aviationweather.gov/metar/data/
 
METAR text: LIBD 070150Z 19002KT CAVOK 16/14 Q1008
Conditions at: LIBD (BARI/PALESE MACC, IT) observed 0150 UTC 07 June 2020
Temperature: 16.0°C (61°F)
Dewpoint: 14.0°C (57°F) [RH = 88%]
Pressure (altimeter): 29.76 inches Hg (1008.0 mb)
Winds: from the S (190 degrees) at 2 MPH (2 knots; 1.0 m/s)
Visibility: 6 or more miles (10+ km)
Ceiling: ceiling and visibility are OK
Clouds: unknown
Weather: no significant weather observed at this time

METAR text: LIBD 070120Z VRB02KT CAVOK 17/14 Q1008
Conditions at: LIBD (BARI/PALESE MACC, IT) observed 0120 UTC 07 June 2020
Temperature: 17.0°C (63°F)
Dewpoint: 14.0°C (57°F) [RH = 82%]
Pressure (altimeter): 29.76 inches Hg (1008.0 mb)
Winds: variable direction winds at 2 MPH (2 knots; 1.0 m/s)
Visibility: 6 or more miles (10+ km)
Ceiling: ceiling and visibility are OK
Clouds: unknown
Weather: no significant weather observed at this time

Forecast for: LIBD (BARI/PALESE MACC, IT)
Text: TAF LIBD 062300Z 0700/0724 22008KT 9999 SCT030
Forecast period: 0000 to 0800 UTC 07 June 2020
Forecast type: FROM: standard forecast or significant change
Winds: from the SW (220 degrees) at 9 MPH (8 knots; 4.1 m/s)
Visibility: 6 or more miles 10+ km)
Ceiling: at least 12,000 feet AGL
Clouds: scattered clouds at 3000 feet AGL
Weather: no significant weather forecast for this period
Text: BECMG 0708/0710 02010KT
Forecast period: 0800 to 1800 UTC 07 June 2020
Forecast type: BECOMING: Conditions expected to become as follows by 1000 UTC 07 June 2020
Winds: from the NNE (20 degrees) at 12 MPH (10 knots; 5.1 m/s)
Visibility: 6 or more miles 10+ km)
Ceiling: at least 12,000 feet AGL
Clouds: scattered clouds at 3000 feet AGL
Weather: no significant weather forecast for this period
Text: BECMG 0718/0720 20008KT
Forecast period: 1800 UTC 07 June 2020 to 0000 UTC 08 June 2020
Forecast type: BECOMING: Conditions expected to become as follows by 2000 UTC 07 June 2020
Winds: from the SSW (200 degrees) at 9 MPH (8 knots; 4.1 m/s)
Visibility: 6 or more miles 10+ km)
Ceiling: at least 12,000 feet AGL
Clouds: scattered clouds at 3000 feet AGL
Weather: no significant weather forecast for this period